createdAt,value
2019-01-20T00:02:11.813Z,99979.72
2019-01-20T00:06:18.678Z,99981.76
2019-01-20T00:10:27.445Z,99985.08
2019-01-20T00:14:34.296Z,99978.88
2019-01-20T00:18:41.516Z,99975.86
2019-01-20T00:22:48.830Z,99972.47
2019-01-20T00:26:56.278Z,99980.17
2019-01-20T00:31:05.700Z,99973.95
2019-01-20T00:35:16.107Z,99974.37
2019-01-20T00:39:24.802Z,99977.34
2019-01-20T00:43:35.288Z,99975.75
2019-01-20T00:47:47.347Z,99971.23
2019-01-20T00:51:54.264Z,99971.86
2019-01-20T00:56:04.274Z,99975.42
2019-01-20T01:00:27.426Z,99968.53
2019-01-20T01:04:34.643Z,99969.69
2019-01-20T01:08:50.793Z,99972.17
2019-01-20T01:13:07.096Z,99970.69
2019-01-20T01:17:16.428Z,99969.28
2019-01-20T01:21:24.120Z,99978.39
2019-01-20T01:25:32.373Z,99975.86
2019-01-20T01:29:39.366Z,99982.39
2019-01-20T01:33:54.060Z,99979.30
2019-01-20T01:38:03.355Z,99988.98
2019-01-20T01:42:10.408Z,99985.33
2019-01-20T01:46:17.413Z,99990.09
2019-01-20T01:50:24.300Z,99987.92
2019-01-20T01:54:31.265Z,99997.05
2019-01-20T01:58:39.271Z,99993.91
2019-01-20T02:02:46.545Z,99990.89
2019-01-20T02:06:54.558Z,99992.56
2019-01-20T02:11:01.679Z,99988.41
2019-01-20T02:15:14.141Z,99986.27
2019-01-20T02:19:21.337Z,99991.08
2019-01-20T02:23:28.318Z,99992.30
2019-01-20T02:27:35.622Z,99990.03
2019-01-20T02:31:42.624Z,99997.54
2019-01-20T02:35:49.595Z,99997.59
2019-01-20T02:39:56.586Z,99991.78
2019-01-20T02:44:03.602Z,99990.80
2019-01-20T02:48:10.678Z,99987.30
2019-01-20T02:52:18.939Z,99990.58
2019-01-20T02:56:25.938Z,99994.13
2019-01-20T03:00:34.540Z,99990.45
2019-01-20T03:04:41.752Z,99988.80
2019-01-20T03:08:51.363Z,99988.59
2019-01-20T03:12:58.448Z,99987.72
2019-01-20T03:17:05.481Z,99988.16
2019-01-20T03:21:12.465Z,99984.77
2019-01-20T03:25:19.753Z,99982.57
2019-01-20T03:29:28.690Z,99975.28
2019-01-20T03:33:38.088Z,99971.70
2019-01-20T03:37:45.239Z,99969.74
2019-01-20T03:41:52.954Z,99971.84
2019-01-20T03:46:00.074Z,99967.36
2019-01-20T03:50:08.142Z,99971.20
2019-01-20T03:54:15.379Z,99967.91
2019-01-20T03:58:22.506Z,99973.33
2019-01-20T04:02:29.753Z,99974.86
2019-01-20T04:06:36.843Z,99973.80
2019-01-20T04:10:44.310Z,99970.25
2019-01-20T04:14:51.474Z,99971.84
2019-01-20T04:18:58.634Z,99977.11
2019-01-20T04:23:05.854Z,99982.23
2019-01-20T04:27:12.898Z,99977.06
2019-01-20T04:31:20.298Z,99975.22
2019-01-20T04:35:28.211Z,99986.22
2019-01-20T04:39:35.257Z,99979.71
2019-01-20T04:43:42.498Z,99977.06
2019-01-20T04:47:49.805Z,99976.15
2019-01-20T04:51:57.232Z,99983.12
2019-01-20T04:56:04.736Z,99983.45
2019-01-20T05:00:22.414Z,99985.56
2019-01-20T05:04:29.662Z,99987.28
2019-01-20T05:08:36.773Z,99982.67
2019-01-20T05:12:44.178Z,99987.95
2019-01-20T05:16:51.485Z,99984.83
2019-01-20T05:20:58.618Z,99985.86
2019-01-20T05:25:07.864Z,99982.14
2019-01-20T05:29:14.840Z,99978.48
2019-01-20T05:33:21.969Z,99986.57
2019-01-20T05:37:29.166Z,99990.16
2019-01-20T05:41:36.288Z,99983.11
2019-01-20T05:45:43.289Z,99990.17
2019-01-20T05:49:50.464Z,99986.45
2019-01-20T05:53:57.595Z,99987.58
2019-01-20T05:58:04.739Z,99996.95
2019-01-20T06:02:11.733Z,99995.34
2019-01-20T06:06:18.819Z,99991.30
2019-01-20T06:10:28.275Z,100001.17
2019-01-20T06:14:35.199Z,100006.66
2019-01-20T06:18:42.350Z,100009.17
2019-01-20T06:22:49.504Z,100013.53
2019-01-20T06:27:02.114Z,100021.17
2019-01-20T06:31:09.296Z,100020.76
2019-01-20T06:35:16.345Z,100021.34
2019-01-20T06:39:23.502Z,100021.66
2019-01-20T06:43:30.425Z,100020.86
2019-01-20T06:47:37.826Z,100027.88
2019-01-20T06:51:45.258Z,100031.27
2019-01-20T06:55:52.554Z,100032.23
2019-01-20T06:59:59.796Z,100035.44
2019-01-20T07:04:07.009Z,100046.75
2019-01-20T07:08:14.328Z,100050.87
2019-01-20T07:12:21.550Z,100053.31
2019-01-20T07:16:28.510Z,100059.23
2019-01-20T07:20:35.769Z,100063.00
2019-01-20T07:24:42.718Z,100065.05
2019-01-20T07:28:49.959Z,100076.28
2019-01-20T07:32:57.024Z,100081.11
2019-01-20T07:37:04.242Z,100079.16
2019-01-20T07:41:13.926Z,100078.58
2019-01-20T07:45:21.128Z,100088.56
2019-01-20T07:49:28.508Z,100093.49
2019-01-20T07:53:35.532Z,100104.72
2019-01-20T07:57:42.575Z,100108.50
2019-01-20T08:01:49.542Z,100116.20
2019-01-20T08:05:56.467Z,100110.66
2019-01-20T08:10:06.530Z,100113.47
2019-01-20T08:14:13.521Z,100116.05
2019-01-20T08:18:20.586Z,100121.11
2019-01-20T08:22:29.446Z,100125.83
2019-01-20T08:26:36.962Z,100125.11
2019-01-20T08:30:44.114Z,100127.36
2019-01-20T08:34:54.390Z,100126.22
2019-01-20T08:39:01.525Z,100135.51
2019-01-20T08:43:10.887Z,100142.30
2019-01-20T08:48:03.245Z,100148.78
2019-01-20T08:52:11.482Z,100146.63
2019-01-20T08:56:20.649Z,100158.09
2019-01-20T09:00:27.778Z,100159.63
2019-01-20T09:04:36.508Z,100159.39
2019-01-20T09:08:45.350Z,100159.23
2019-01-20T09:12:53.176Z,100164.27
2019-01-20T09:17:01.445Z,100170.11
2019-01-20T09:21:08.587Z,100171.58
2019-01-20T09:25:30.176Z,100170.15
2019-01-20T09:29:47.710Z,100177.33
2019-01-20T09:34:00.218Z,100181.97
2019-01-20T09:38:09.964Z,100182.05
2019-01-20T09:42:32.627Z,100187.81
2019-01-20T09:46:49.282Z,100186.79
2019-01-20T09:51:07.152Z,100195.43
2019-01-20T09:55:22.232Z,100194.59
2019-01-20T09:59:30.033Z,100191.23
2019-01-20T10:03:38.677Z,100199.80
2019-01-20T10:07:46.952Z,100207.65
2019-01-20T10:11:54.773Z,100190.94
2019-01-20T10:16:02.247Z,100210.75
2019-01-20T10:20:23.496Z,100203.69
2019-01-20T10:24:33.884Z,100214.49
2019-01-20T10:28:42.201Z,100210.24
2019-01-20T10:32:49.351Z,100213.89
2019-01-20T10:37:00.063Z,100203.13
2019-01-20T10:41:07.542Z,100205.85
2019-01-20T10:45:15.143Z,100194.72
2019-01-20T10:49:29.928Z,100193.54
2019-01-20T10:53:40.166Z,100188.70
2019-01-20T10:57:47.157Z,100201.72
2019-01-20T11:01:54.220Z,100205.05
2019-01-20T11:06:03.298Z,100205.58
2019-01-20T11:10:16.125Z,100199.41
2019-01-20T11:14:23.616Z,100204.21
2019-01-20T11:18:31.227Z,100208.98
2019-01-20T11:22:38.838Z,100206.68
2019-01-20T11:26:45.900Z,100200.73
2019-01-20T11:30:53.096Z,100211.70
2019-01-20T11:35:00.091Z,100193.40
2019-01-20T11:39:11.805Z,100205.11
2019-01-20T11:43:19.072Z,100198.38
2019-01-20T11:47:27.400Z,100198.93
2019-01-20T11:51:35.122Z,100206.67
2019-01-20T11:55:42.468Z,100199.72
2019-01-20T11:59:49.613Z,100198.86
2019-01-20T12:03:57.659Z,100195.92
2019-01-20T12:08:05.903Z,100203.98
2019-01-20T12:12:15.568Z,100192.45
2019-01-20T12:16:23.511Z,100193.24
2019-01-20T12:20:31.104Z,100188.40
2019-01-20T12:24:38.805Z,100194.98
2019-01-20T12:28:46.728Z,100191.77
2019-01-20T12:32:54.864Z,100178.64
2019-01-20T12:37:04.310Z,100187.16
2019-01-20T12:41:11.713Z,100190.80
2019-01-20T12:45:20.611Z,100186.78
2019-01-20T12:49:28.363Z,100187.55
2019-01-20T12:53:36.358Z,100183.34
2019-01-20T12:57:44.489Z,100191.45
2019-01-20T13:01:52.085Z,100184.73
2019-01-20T13:06:00.064Z,100184.13
2019-01-20T13:10:09.349Z,100186.61
2019-01-20T13:14:18.823Z,100182.30
2019-01-20T13:18:25.753Z,100188.94
2019-01-20T13:22:35.523Z,100179.24
2019-01-20T13:26:44.261Z,100182.47
2019-01-20T13:30:51.775Z,100182.65
2019-01-20T13:34:58.916Z,100183.25
2019-01-20T13:39:10.946Z,100181.83
2019-01-20T13:43:20.371Z,100180.76
2019-01-20T13:47:27.956Z,100185.25
2019-01-20T13:51:36.300Z,100182.99
2019-01-20T13:55:43.415Z,100176.68
2019-01-20T13:59:51.719Z,100179.80
2019-01-20T14:03:58.748Z,100182.13
2019-01-20T14:08:08.262Z,100188.56
2019-01-20T14:12:15.930Z,100191.99
2019-01-20T14:16:23.147Z,100193.30
2019-01-20T14:20:30.379Z,100198.41
2019-01-20T14:24:39.574Z,100196.47
2019-01-20T14:28:46.988Z,100199.03
2019-01-20T14:33:01.786Z,100209.38
2019-01-20T14:37:16.821Z,100214.95
2019-01-20T14:41:24.032Z,100212.28
2019-01-20T14:45:31.079Z,100210.80
2019-01-20T14:49:37.942Z,100208.38
2019-01-20T14:53:45.247Z,100213.73
2019-01-20T14:57:52.428Z,100213.39
2019-01-20T15:02:01.371Z,100216.52
2019-01-20T15:06:19.148Z,100219.78
2019-01-20T15:10:28.613Z,100213.42
2019-01-20T15:14:36.338Z,100219.86
2019-01-20T15:18:45.199Z,100231.00
2019-01-20T15:22:53.060Z,100225.32
2019-01-20T15:26:59.971Z,100225.91
2019-01-20T15:31:06.876Z,100234.57
2019-01-20T15:35:15.369Z,100234.23
2019-01-20T15:39:23.760Z,100234.45
2019-01-20T15:43:30.966Z,100232.83
2019-01-20T15:47:38.168Z,100229.83
2019-01-20T15:51:45.476Z,100244.23
2019-01-20T15:55:53.544Z,100240.79
2019-01-20T16:00:00.482Z,100249.75
2019-01-20T16:04:09.538Z,100255.77
2019-01-20T16:08:16.974Z,100260.95
2019-01-20T16:12:25.655Z,100270.35
2019-01-20T16:16:32.745Z,100273.33
2019-01-20T16:20:40.860Z,100282.69
2019-01-20T16:24:52.287Z,100283.12
2019-01-20T16:29:00.192Z,100291.94
2019-01-20T16:33:07.561Z,100291.13
2019-01-20T16:37:14.558Z,100293.68
2019-01-20T16:41:21.654Z,100293.53
2019-01-20T16:45:42.572Z,100308.64
2019-01-20T16:49:50.198Z,100311.62
2019-01-20T16:53:58.121Z,100317.53
2019-01-20T16:58:06.804Z,100326.59
2019-01-20T17:02:15.805Z,100327.53
2019-01-20T17:06:24.605Z,100328.52
2019-01-20T17:10:35.430Z,100332.56
2019-01-20T17:14:43.683Z,100336.09
2019-01-20T17:18:54.058Z,100338.31
2019-01-20T17:23:02.631Z,100345.98
2019-01-20T17:27:14.246Z,100350.00
2019-01-20T17:31:21.414Z,100355.19
2019-01-20T17:35:28.469Z,100363.92
2019-01-20T17:39:38.838Z,100362.69
2019-01-20T17:43:45.895Z,100365.52
2019-01-20T17:47:54.700Z,100375.91
2019-01-20T17:52:02.329Z,100378.55
2019-01-20T17:56:10.029Z,100375.66
2019-01-20T18:00:23.240Z,100384.17
2019-01-20T18:04:32.518Z,100392.80
2019-01-20T18:08:46.684Z,100392.86
2019-01-20T18:12:54.210Z,100394.81
2019-01-20T18:17:01.573Z,100395.86
2019-01-20T18:21:09.478Z,100407.23
2019-01-20T18:25:17.731Z,100417.76
2019-01-20T18:29:25.973Z,100421.91
2019-01-20T18:33:33.408Z,100421.78
2019-01-20T18:37:57.999Z,100422.45
2019-01-20T18:42:11.051Z,100432.41
2019-01-20T18:46:22.082Z,100436.80
2019-01-20T18:50:33.197Z,100448.75
2019-01-20T18:54:40.477Z,100444.88
2019-01-20T18:58:47.635Z,100444.75
2019-01-20T19:02:54.929Z,100454.58
2019-01-20T19:07:02.002Z,100455.95
2019-01-20T19:11:09.534Z,100460.77
2019-01-20T19:15:28.363Z,100459.52
2019-01-20T19:19:39.150Z,100468.42
2019-01-20T19:23:48.746Z,100477.17
2019-01-20T19:27:58.891Z,100484.15
2019-01-20T19:32:06.450Z,100489.03
2019-01-20T19:36:21.640Z,100496.97
2019-01-20T19:40:30.646Z,100503.14
2019-01-20T19:44:58.611Z,100507.89
2019-01-20T19:49:11.478Z,100509.41
2019-01-20T19:53:19.005Z,100510.78
2019-01-20T19:57:27.257Z,100512.67
2019-01-20T20:01:40.470Z,100519.05
2019-01-20T20:05:52.918Z,100516.13
2019-01-20T20:10:13.229Z,100522.95
2019-01-20T20:14:27.905Z,100516.52
2019-01-20T20:18:39.443Z,100529.30
2019-01-20T20:22:57.240Z,100530.98
2019-01-20T20:27:13.228Z,100533.73
2019-01-20T20:31:17.243Z,100538.20
2019-01-20T20:35:27.731Z,100534.43
2019-01-20T20:39:39.441Z,100548.31
2019-01-20T20:44:12.035Z,100545.20
2019-01-20T20:48:35.614Z,100552.31
2019-01-20T20:52:46.181Z,100558.55
2019-01-20T20:57:03.002Z,100560.97
2019-01-20T21:01:16.306Z,100560.09
2019-01-20T21:05:27.583Z,100573.10
2019-01-20T21:09:46.291Z,100576.16
2019-01-20T21:13:59.114Z,100583.31
2019-01-20T21:18:09.868Z,100583.02
2019-01-20T21:22:17.620Z,100583.78
2019-01-20T21:26:26.456Z,100589.40
2019-01-20T21:30:33.836Z,100590.16
2019-01-20T21:34:48.075Z,100599.71
2019-01-20T21:39:01.007Z,100602.33
2019-01-20T21:43:18.447Z,100612.04
2019-01-20T21:47:27.164Z,100615.92
2019-01-20T21:51:37.655Z,100617.22
2019-01-20T21:55:54.573Z,100625.56
2019-01-20T22:00:09.999Z,100625.22
2019-01-20T22:04:30.748Z,100626.13
2019-01-20T22:08:38.205Z,100632.86
2019-01-20T22:12:45.426Z,100647.36
2019-01-20T22:16:53.148Z,100641.53
2019-01-20T22:21:00.324Z,100634.16
2019-01-20T22:25:10.728Z,100637.69
2019-01-20T22:29:24.989Z,100647.88
2019-01-20T22:33:33.391Z,100649.56
2019-01-20T22:37:42.192Z,100658.79
2019-01-20T22:41:56.230Z,100662.03
2019-01-20T22:46:12.707Z,100666.17
2019-01-20T22:50:20.012Z,100673.78
2019-01-20T22:54:27.552Z,100678.09
2019-01-20T22:58:36.681Z,100678.45
2019-01-20T23:02:43.856Z,100680.53
2019-01-20T23:06:50.925Z,100689.20
2019-01-20T23:10:59.206Z,100685.12
2019-01-20T23:15:06.829Z,100687.86
2019-01-20T23:19:13.875Z,100692.05
2019-01-20T23:23:20.913Z,100701.06
2019-01-20T23:27:27.897Z,100701.22
2019-01-20T23:31:34.999Z,100698.63
2019-01-20T23:35:42.036Z,100707.65
2019-01-20T23:39:48.929Z,100712.89
2019-01-20T23:43:57.034Z,100709.59
2019-01-20T23:48:04.327Z,100706.58
2019-01-20T23:52:11.440Z,100715.98
2019-01-20T23:56:18.418Z,100720.11
